Time;durP1;ratioP1;P1;durP2;ratioP2;P2;SDS_P1;SDS_P2;PMS_P1;PMS_P2;Temp;Humidity;BMP_temperature;BMP_pressure;BME280_temperature;BME280_humidity;BME280_pressure;Samples;Min_cycle;Max_cycle;Signal;HPM_P1;HPM_P2
2023/12/28 00:00:38;;;;;;;24.40;22.55;;;;;;;;;;5039051;28;20053;-75
2023/12/28 00:03:09;;;;;;;27.35;25.42;;;;;;;;;;5036872;28;20049;-75
2023/12/28 00:05:40;;;;;;;26.02;24.33;;;;;;;;;;5039452;28;20049;-76
2023/12/28 00:08:10;;;;;;;28.63;26.35;;;;;;;;;;5038889;28;20048;-75
2023/12/28 00:10:40;;;;;;;22.08;20.35;;;;;;;;;;5038509;28;20053;-76
2023/12/28 00:13:12;;;;;;;28.67;26.88;;;;;;;;;;5038295;28;20056;-75
2023/12/28 00:15:51;;;;;;;164.40;152.55;;;;;;;;;;5039232;28;20049;-76
2023/12/28 00:18:24;;;;;;;30.90;28.58;;;;;;;;;;5039445;28;20060;-76
2023/12/28 00:20:54;;;;;;;30.65;28.20;;;;;;;;;;5038979;28;20049;-76
2023/12/28 00:23:25;;;;;;;29.35;27.40;;;;;;;;;;5039970;28;20053;-76
2023/12/28 00:25:55;;;;;;;164.40;152.25;;;;;;;;;;5038607;28;20052;-76
2023/12/28 00:28:26;;;;;;;174.32;160.98;;;;;;;;;;5038417;28;20053;-76
2023/12/28 00:30:57;;;;;;;32.88;30.52;;;;;;;;;;5053234;28;20057;-76
2023/12/28 00:33:27;;;;;;;178.48;165.82;;;;;;;;;;5052982;28;20056;-77
2023/12/28 00:35:59;;;;;;;165.68;153.93;;;;;;;;;;5040305;28;20056;-76
2023/12/28 00:38:30;;;;;;;159.27;147.52;;;;;;;;;;5041345;28;21031;-75
2023/12/28 00:41:00;;;;;;;162.77;151.55;;;;;;;;;;5041089;28;20055;-75
2023/12/28 00:43:30;;;;;;;159.98;148.68;;;;;;;;;;5040867;28;20052;-74
2023/12/28 00:46:00;;;;;;;162.10;150.20;;;;;;;;;;5041298;28;20543;-75
2023/12/28 00:48:32;;;;;;;147.63;136.50;;;;;;;;;;5055922;28;20076;-74
2023/12/28 00:51:03;;;;;;;145.95;135.38;;;;;;;;;;5041710;28;20049;-74
2023/12/28 00:53:34;;;;;;;142.40;132.55;;;;;;;;;;5041776;28;20499;-75
2023/12/28 00:56:09;;;;;;;150.98;140.50;;;;;;;;;;5041803;28;20057;-74
2023/12/28 00:58:43;;;;;;;144.25;133.73;;;;;;;;;;5041229;28;20492;-74
2023/12/28 01:01:14;;;;;;;146.43;136.48;;;;;;;;;;5040540;28;20527;-73
2023/12/28 01:03:46;;;;;;;141.90;131.75;;;;;;;;;;5041409;28;20048;-75
2023/12/28 01:06:20;;;;;;;134.73;125.28;;;;;;;;;;5024364;28;20045;-75
2023/12/28 01:08:52;;;;;;;124.25;115.63;;;;;;;;;;5041099;28;20385;-75
2023/12/28 01:11:23;;;;;;;111.07;103.43;;;;;;;;;;5041402;28;20516;-74
2023/12/28 01:13:54;;;;;;;106.95;99.22;;;;;;;;;;5041166;28;20538;-74
2023/12/28 01:16:24;;;;;;;105.32;98.22;;;;;;;;;;5040238;28;20508;-75
2023/12/28 01:19:02;;;;;;;90.45;84.07;;;;;;;;;;5056396;28;20049;-74
2023/12/28 01:21:33;;;;;;;91.22;85.13;;;;;;;;;;5039853;28;20416;-74
2023/12/28 01:24:03;;;;;;;81.63;76.35;;;;;;;;;;5040462;28;20053;-75
2023/12/28 01:26:35;;;;;;;81.22;75.50;;;;;;;;;;5040928;28;20060;-75
2023/12/28 01:29:05;;;;;;;83.03;77.55;;;;;;;;;;5041365;28;20515;-76
2023/12/28 01:31:38;;;;;;;82.20;76.63;;;;;;;;;;5039391;28;20052;-75
2023/12/28 01:34:09;;;;;;;77.95;72.00;;;;;;;;;;5041380;28;20072;-74
2023/12/28 01:36:43;;;;;;;74.30;69.18;;;;;;;;;;5040620;28;20052;-73
2023/12/28 01:39:15;;;;;;;75.97;70.38;;;;;;;;;;5040763;28;20045;-76
2023/12/28 01:41:47;;;;;;;70.80;65.90;;;;;;;;;;5040696;28;20048;-74
2023/12/28 01:44:17;;;;;;;70.55;65.60;;;;;;;;;;5040569;28;20053;-74
2023/12/28 01:46:47;;;;;;;64.15;59.63;;;;;;;;;;5039000;28;20646;-74
2023/12/28 01:49:19;;;;;;;66.25;61.15;;;;;;;;;;5038789;28;20064;-75
2023/12/28 01:51:52;;;;;;;57.03;52.80;;;;;;;;;;5039376;28;20049;-73
2023/12/28 01:54:23;;;;;;;68.20;63.47;;;;;;;;;;5040557;28;20368;-75
2023/12/28 01:56:54;;;;;;;62.38;57.50;;;;;;;;;;5039881;28;20048;-75
2023/12/28 01:59:25;;;;;;;61.50;57.22;;;;;;;;;;5039970;28;20071;-76
2023/12/28 02:01:57;;;;;;;69.57;64.72;;;;;;;;;;5039644;28;20052;-74
2023/12/28 02:04:28;;;;;;;66.97;61.85;;;;;;;;;;5040575;28;20045;-74
2023/12/28 02:07:00;;;;;;;62.88;58.28;;;;;;;;;;5039356;28;20080;-75
2023/12/28 02:09:31;;;;;;;61.33;56.47;;;;;;;;;;5038815;28;20435;-73
2023/12/28 02:12:04;;;;;;;60.03;55.92;;;;;;;;;;5039919;28;20060;-73
2023/12/28 02:14:34;;;;;;;58.92;55.08;;;;;;;;;;5039025;28;20053;-74
2023/12/28 02:17:11;;;;;;;66.22;61.53;;;;;;;;;;5039559;28;20496;-74
2023/12/28 02:19:51;;;;;;;65.03;60.35;;;;;;;;;;5040130;28;20400;-75
2023/12/28 02:22:24;;;;;;;59.65;55.17;;;;;;;;;;5039032;28;20388;-75
2023/12/28 02:25:11;;;;;;;57.53;53.58;;;;;;;;;;5038574;28;20053;-75
2023/12/28 02:27:46;;;;;;;63.67;59.13;;;;;;;;;;5038284;28;20053;-74
2023/12/28 02:30:21;;;;;;;58.30;54.28;;;;;;;;;;5038431;28;20420;-74
2023/12/28 02:32:53;;;;;;;;;;;;;;;;;;5039856;28;20850;-75
2023/12/28 02:35:33;;;;;;;87.20;80.85;;;;;;;;;;5039494;28;19931;-75
2023/12/28 02:38:11;;;;;;;64.65;59.90;;;;;;;;;;5039695;28;20049;-74
2023/12/28 02:40:44;;;;;;;58.03;54.08;;;;;;;;;;5038064;28;20063;-74
2023/12/28 02:43:18;;;;;;;61.65;57.00;;;;;;;;;;5054751;28;20056;-75
2023/12/28 02:45:50;;;;;;;62.65;57.78;;;;;;;;;;5039694;28;20052;-74
2023/12/28 02:48:20;;;;;;;59.67;55.28;;;;;;;;;;5039426;28;20063;-74
2023/12/28 02:50:51;;;;;;;54.47;50.70;;;;;;;;;;5039277;28;20048;-74
2023/12/28 02:53:23;;;;;;;55.08;51.13;;;;;;;;;;5038352;28;20056;-74
2023/12/28 02:55:53;;;;;;;61.88;58.03;;;;;;;;;;5054059;28;20048;-74
2023/12/28 02:58:23;;;;;;;49.78;46.22;;;;;;;;;;5038522;28;20036;-74
2023/12/28 03:00:53;;;;;;;53.63;49.78;;;;;;;;;;5039113;28;20049;-74
2023/12/28 03:03:24;;;;;;;45.13;41.88;;;;;;;;;;5037784;28;20053;-74
2023/12/28 03:05:57;;;;;;;78.60;72.47;;;;;;;;;;5038012;28;20665;-74
2023/12/28 03:08:28;;;;;;;84.82;78.55;;;;;;;;;;5038457;28;20689;-74
2023/12/28 03:10:58;;;;;;;94.78;88.35;;;;;;;;;;5037997;28;20053;-75
2023/12/28 03:13:31;;;;;;;120.38;111.32;;;;;;;;;;5039375;28;20530;-74
2023/12/28 03:16:02;;;;;;;105.88;98.38;;;;;;;;;;5054152;28;20053;-74
2023/12/28 03:18:33;;;;;;;75.00;69.57;;;;;;;;;;5054496;28;20048;-73
2023/12/28 03:21:03;;;;;;;70.78;65.53;;;;;;;;;;5038840;28;20877;-74
2023/12/28 03:23:35;;;;;;;72.53;67.45;;;;;;;;;;5040035;28;20040;-74
2023/12/28 03:26:08;;;;;;;70.47;65.78;;;;;;;;;;5037382;28;20055;-74
2023/12/28 03:28:43;;;;;;;67.30;62.25;;;;;;;;;;5037127;28;20053;-73
2023/12/28 03:31:14;;;;;;;68.63;63.80;;;;;;;;;;5038285;28;20041;-73
2023/12/28 03:33:46;;;;;;;69.90;65.22;;;;;;;;;;5055057;28;20079;-74
2023/12/28 03:36:20;;;;;;;65.68;60.80;;;;;;;;;;5041775;28;20052;-73
2023/12/28 03:38:53;;;;;;;68.00;63.13;;;;;;;;;;5042804;28;20067;-75
2023/12/28 03:41:23;;;;;;;65.65;60.95;;;;;;;;;;5040627;28;20053;-75
2023/12/28 03:43:54;;;;;;;73.07;67.88;;;;;;;;;;5041960;28;20045;-75
2023/12/28 03:46:26;;;;;;;69.20;64.25;;;;;;;;;;5040991;28;20099;-74
2023/12/28 03:48:57;;;;;;;66.60;62.13;;;;;;;;;;5042172;28;20627;-74
2023/12/28 03:51:34;;;;;;;73.13;68.05;;;;;;;;;;5055822;28;20068;-74
2023/12/28 03:54:08;;;;;;;61.55;57.42;;;;;;;;;;5041016;28;20049;-75
2023/12/28 03:56:43;;;;;;;61.13;56.80;;;;;;;;;;5041500;28;20041;-75
2023/12/28 03:59:17;;;;;;;63.88;59.10;;;;;;;;;;5041613;28;20056;-75
2023/12/28 04:01:48;;;;;;;60.97;56.63;;;;;;;;;;5041203;28;20076;-75
2023/12/28 04:04:19;;;;;;;72.15;66.97;;;;;;;;;;5041694;28;20511;-74
2023/12/28 04:06:51;;;;;;;62.13;57.90;;;;;;;;;;5041998;28;20083;-72
2023/12/28 04:09:23;;;;;;;64.40;59.95;;;;;;;;;;5042087;28;20048;-73
2023/12/28 04:11:53;;;;;;;51.88;48.20;;;;;;;;;;5044728;28;20060;-72
2023/12/28 04:14:24;;;;;;;56.00;52.03;;;;;;;;;;5044754;28;20056;-71
2023/12/28 04:16:55;;;;;;;54.85;51.10;;;;;;;;;;5043494;28;20056;-72
2023/12/28 04:19:34;;;;;;;61.50;57.08;;;;;;;;;;5027804;28;20408;-72
2023/12/28 04:22:04;;;;;;;58.92;55.05;;;;;;;;;;5044036;28;20045;-72
2023/12/28 04:24:37;;;;;;;64.78;60.30;;;;;;;;;;5043812;28;20053;-72
2023/12/28 04:27:08;;;;;;;66.97;62.47;;;;;;;;;;5043569;28;20088;-72
2023/12/28 04:29:38;;;;;;;59.95;55.80;;;;;;;;;;5044347;28;20045;-72
2023/12/28 04:32:09;;;;;;;67.43;62.70;;;;;;;;;;5043271;28;20083;-72
2023/12/28 04:34:39;;;;;;;56.55;52.42;;;;;;;;;;5044207;28;20055;-73
2023/12/28 04:37:10;;;;;;;60.72;56.20;;;;;;;;;;5044572;28;20048;-71
2023/12/28 04:39:40;;;;;;;63.50;58.78;;;;;;;;;;5060219;28;20084;-72
2023/12/28 04:42:10;;;;;;;90.80;84.35;;;;;;;;;;5043018;28;20057;-73
2023/12/28 04:44:59;;;;;;;58.17;54.40;;;;;;;;;;5059100;28;20056;-72
2023/12/28 04:47:43;;;;;;;64.95;60.15;;;;;;;;;;5042670;28;20053;-72
2023/12/28 04:50:14;;;;;;;59.65;55.47;;;;;;;;;;5044632;28;20543;-72
2023/12/28 04:52:44;;;;;;;68.82;64.22;;;;;;;;;;5042716;28;20621;-73
2023/12/28 04:55:16;;;;;;;62.05;57.58;;;;;;;;;;5043519;28;20574;-71
2023/12/28 04:57:46;;;;;;;55.72;51.95;;;;;;;;;;5043975;28;20056;-71
2023/12/28 05:00:18;;;;;;;61.08;56.70;;;;;;;;;;5042182;28;20053;-71
2023/12/28 05:02:50;;;;;;;57.85;53.83;;;;;;;;;;5044234;28;20049;-74
2023/12/28 05:05:22;;;;;;;55.53;51.42;;;;;;;;;;5045833;28;20548;-73
2023/12/28 05:07:53;;;;;;;56.38;52.35;;;;;;;;;;5044411;28;20058;-75
2023/12/28 05:10:25;;;;;;;63.78;59.33;;;;;;;;;;5043155;28;20060;-75
2023/12/28 05:12:56;;;;;;;60.00;55.92;;;;;;;;;;5044158;28;20060;-74
2023/12/28 05:15:30;;;;;;;59.50;55.35;;;;;;;;;;5042395;28;20045;-75
2023/12/28 05:18:02;;;;;;;59.35;55.28;;;;;;;;;;5044287;28;20053;-74
2023/12/28 05:20:35;;;;;;;62.95;58.70;;;;;;;;;;5041920;28;20049;-75
2023/12/28 05:23:05;;;;;;;56.75;53.00;;;;;;;;;;5058958;28;20057;-74
2023/12/28 05:25:35;;;;;;;62.25;58.17;;;;;;;;;;5042545;28;20057;-73
2023/12/28 05:28:06;;;;;;;64.68;60.03;;;;;;;;;;5042889;28;20059;-75
2023/12/28 05:30:37;;;;;;;61.45;57.10;;;;;;;;;;5043552;28;20049;-73
2023/12/28 05:33:08;;;;;;;61.60;57.63;;;;;;;;;;5043461;28;20423;-72
2023/12/28 05:35:38;;;;;;;54.25;50.60;;;;;;;;;;5040755;28;20064;-71
2023/12/28 05:38:08;;;;;;;50.55;47.05;;;;;;;;;;5043166;28;20052;-72
2023/12/28 05:40:39;;;;;;;61.75;57.47;;;;;;;;;;5043463;28;20037;-71
2023/12/28 05:43:10;;;;;;;58.53;54.25;;;;;;;;;;5043296;28;20048;-71
2023/12/28 05:45:40;;;;;;;57.85;53.67;;;;;;;;;;5042785;28;20052;-72
2023/12/28 05:48:10;;;;;;;48.88;45.63;;;;;;;;;;5043189;28;20060;-72
2023/12/28 05:50:43;;;;;;;45.78;42.30;;;;;;;;;;5042456;28;20041;-72
2023/12/28 05:53:15;;;;;;;52.75;49.03;;;;;;;;;;5042969;28;20060;-72
2023/12/28 05:55:47;;;;;;;48.97;45.70;;;;;;;;;;5043426;28;20052;-72
2023/12/28 05:58:17;;;;;;;52.50;48.47;;;;;;;;;;5043400;28;20053;-72
2023/12/28 06:00:48;;;;;;;51.72;48.10;;;;;;;;;;5042793;28;20045;-72
2023/12/28 06:03:20;;;;;;;45.67;42.17;;;;;;;;;;5042937;28;20063;-71
2023/12/28 06:05:51;;;;;;;52.63;48.85;;;;;;;;;;5042572;28;20946;-72
2023/12/28 06:08:21;;;;;;;50.22;46.50;;;;;;;;;;5042703;28;20492;-72
2023/12/28 06:10:56;;;;;;;48.45;45.13;;;;;;;;;;5043086;28;20056;-71
2023/12/28 06:13:26;;;;;;;50.47;47.03;;;;;;;;;;5042872;28;20057;-72
2023/12/28 06:15:57;;;;;;;49.25;45.90;;;;;;;;;;5043424;28;20056;-72
2023/12/28 06:18:28;;;;;;;45.33;42.25;;;;;;;;;;5042762;28;20040;-71
2023/12/28 06:20:58;;;;;;;43.38;40.42;;;;;;;;;;5042655;28;20051;-72
2023/12/28 06:23:28;;;;;;;52.33;48.65;;;;;;;;;;5042724;28;20049;-72
2023/12/28 06:25:59;;;;;;;49.13;45.40;;;;;;;;;;5042597;28;20041;-75
2023/12/28 06:28:30;;;;;;;46.78;43.50;;;;;;;;;;5042354;28;20045;-72
2023/12/28 06:31:03;;;;;;;48.22;44.97;;;;;;;;;;5043209;28;20045;-70
2023/12/28 06:33:33;;;;;;;49.65;46.40;;;;;;;;;;5041410;28;20484;-72
2023/12/28 06:36:07;;;;;;;51.83;48.20;;;;;;;;;;5042379;28;20053;-71
2023/12/28 06:38:38;;;;;;;52.90;49.33;;;;;;;;;;5042524;28;20063;-73
2023/12/28 06:41:14;;;;;;;52.25;48.42;;;;;;;;;;5041673;28;20045;-75
2023/12/28 06:43:44;;;;;;;51.45;47.88;;;;;;;;;;5041699;28;20053;-74
2023/12/28 06:46:14;;;;;;;59.38;55.20;;;;;;;;;;5042311;28;20057;-75
2023/12/28 06:48:46;;;;;;;65.03;60.42;;;;;;;;;;5040655;28;20408;-74
2023/12/28 06:51:33;;;;;;;62.58;58.08;;;;;;;;;;5040687;28;20059;-74
2023/12/28 06:54:03;;;;;;;67.55;62.78;;;;;;;;;;5042046;28;20053;-74
2023/12/28 06:56:33;;;;;;;48.00;44.72;;;;;;;;;;5041586;28;20397;-74
2023/12/28 06:59:04;;;;;;;43.53;40.40;;;;;;;;;;5042178;28;20067;-75
2023/12/28 07:01:34;;;;;;;47.60;44.30;;;;;;;;;;5042304;28;20060;-73
2023/12/28 07:04:05;;;;;;;44.60;41.45;;;;;;;;;;5040798;28;20056;-75
2023/12/28 07:06:35;;;;;;;51.75;47.92;;;;;;;;;;5041975;28;20488;-73
2023/12/28 07:09:06;;;;;;;45.78;42.38;;;;;;;;;;5040863;28;20049;-75
2023/12/28 07:11:37;;;;;;;82.45;76.60;;;;;;;;;;5041128;28;20645;-70
2023/12/28 07:14:07;;;;;;;47.47;44.03;;;;;;;;;;5042425;28;20052;-72
2023/12/28 07:16:37;;;;;;;53.65;49.83;;;;;;;;;;5041359;28;20496;-72
2023/12/28 07:19:09;;;;;;;48.63;45.15;;;;;;;;;;5041422;28;20053;-72
2023/12/28 07:21:41;;;;;;;59.00;54.80;;;;;;;;;;5041289;28;20048;-70
2023/12/28 07:24:11;;;;;;;50.22;46.65;;;;;;;;;;5041202;28;20500;-72
2023/12/28 07:26:42;;;;;;;50.75;47.15;;;;;;;;;;5040592;28;20045;-71
2023/12/28 07:29:12;;;;;;;54.72;50.58;;;;;;;;;;5040174;28;20063;-72
2023/12/28 07:31:43;;;;;;;53.65;49.90;;;;;;;;;;5041301;28;20052;-72
2023/12/28 07:34:14;;;;;;;58.75;54.47;;;;;;;;;;5041423;28;20059;-71
2023/12/28 07:36:45;;;;;;;56.88;52.50;;;;;;;;;;5041306;28;20416;-72
2023/12/28 07:39:16;;;;;;;70.65;65.32;;;;;;;;;;5041428;28;20049;-72
2023/12/28 07:41:46;;;;;;;55.70;51.72;;;;;;;;;;5041726;28;20049;-71
2023/12/28 07:44:17;;;;;;;51.33;47.65;;;;;;;;;;5041399;28;20629;-71
2023/12/28 07:46:48;;;;;;;53.55;49.75;;;;;;;;;;5040103;28;20051;-71
2023/12/28 07:49:19;;;;;;;57.63;53.10;;;;;;;;;;5041827;28;20084;-73
2023/12/28 07:51:50;;;;;;;49.05;45.60;;;;;;;;;;5041087;28;20049;-73
2023/12/28 07:54:20;;;;;;;57.22;53.05;;;;;;;;;;5040968;28;20049;-75
2023/12/28 07:56:51;;;;;;;50.65;47.03;;;;;;;;;;5041963;28;20590;-74
2023/12/28 07:59:21;;;;;;;47.90;44.33;;;;;;;;;;5041023;28;20049;-75
2023/12/28 08:01:52;;;;;;;47.38;43.90;;;;;;;;;;5041879;28;20056;-74
2023/12/28 08:04:22;;;;;;;43.67;40.47;;;;;;;;;;5041028;28;20048;-73
2023/12/28 08:06:54;;;;;;;46.78;43.58;;;;;;;;;;5041613;28;20049;-74
2023/12/28 08:09:24;;;;;;;48.83;45.45;;;;;;;;;;5041980;28;20041;-74
2023/12/28 08:11:54;;;;;;;47.17;43.83;;;;;;;;;;5041711;28;20060;-74
2023/12/28 08:14:25;;;;;;;42.83;39.85;;;;;;;;;;5041469;28;20053;-75
2023/12/28 08:16:56;;;;;;;57.85;53.80;;;;;;;;;;5041392;28;20060;-74
2023/12/28 08:19:27;;;;;;;53.55;49.85;;;;;;;;;;5039873;28;20049;-75
2023/12/28 08:21:57;;;;;;;54.72;50.80;;;;;;;;;;5041547;28;20052;-75
2023/12/28 08:24:29;;;;;;;52.97;49.13;;;;;;;;;;5041989;28;20538;-73
2023/12/28 08:27:04;;;;;;;48.63;44.85;;;;;;;;;;5041585;28;20579;-74
2023/12/28 08:29:36;;;;;;;51.97;48.05;;;;;;;;;;5040649;28;20048;-75
2023/12/28 08:32:06;;;;;;;46.00;42.83;;;;;;;;;;5040966;28;20049;-74
2023/12/28 08:34:40;;;;;;;50.38;46.92;;;;;;;;;;5041336;28;20057;-75
2023/12/28 08:37:11;;;;;;;47.60;43.78;;;;;;;;;;5039755;28;20056;-74
2023/12/28 08:39:42;;;;;;;48.08;44.67;;;;;;;;;;5040628;28;20539;-74
2023/12/28 08:42:12;;;;;;;43.45;40.47;;;;;;;;;;5041644;28;20044;-74
2023/12/28 08:44:42;;;;;;;43.13;39.90;;;;;;;;;;5039881;28;20059;-74
2023/12/28 08:47:16;;;;;;;42.30;39.15;;;;;;;;;;5039930;28;20528;-74
2023/12/28 08:49:47;;;;;;;44.63;41.20;;;;;;;;;;5040812;28;20048;-75
2023/12/28 08:52:18;;;;;;;45.92;42.55;;;;;;;;;;5039338;28;20056;-76
2023/12/28 08:54:49;;;;;;;42.92;39.85;;;;;;;;;;5040694;28;20408;-74
2023/12/28 08:57:20;;;;;;;46.78;43.60;;;;;;;;;;5043235;28;20057;-74
2023/12/28 09:00:08;;;;;;;45.45;42.13;;;;;;;;;;5044475;28;20587;-74
2023/12/28 09:02:39;;;;;;;42.08;38.92;;;;;;;;;;5044663;28;20416;-74
2023/12/28 09:05:11;;;;;;;44.45;41.47;;;;;;;;;;5043873;28;20067;-84
2023/12/28 09:07:42;;;;;;;40.08;37.25;;;;;;;;;;5043845;28;20052;-75
2023/12/28 09:10:13;;;;;;;41.25;38.50;;;;;;;;;;5043779;28;20516;-74
2023/12/28 09:12:43;;;;;;;41.80;38.88;;;;;;;;;;5043863;28;20056;-75
2023/12/28 09:15:14;;;;;;;37.72;35.15;;;;;;;;;;5043226;28;20462;-74
2023/12/28 09:17:44;;;;;;;37.70;35.22;;;;;;;;;;5043067;28;20056;-73
2023/12/28 09:20:16;;;;;;;37.15;34.38;;;;;;;;;;5043695;28;20044;-74
2023/12/28 09:22:47;;;;;;;38.38;35.58;;;;;;;;;;5044071;28;20049;-74
2023/12/28 09:25:19;;;;;;;35.85;32.83;;;;;;;;;;5044945;28;20107;-75
2023/12/28 09:27:50;;;;;;;32.95;30.63;;;;;;;;;;5041753;28;20800;-74
2023/12/28 09:30:21;;;;;;;31.00;28.85;;;;;;;;;;5043747;28;20411;-74
2023/12/28 09:32:53;;;;;;;33.83;30.85;;;;;;;;;;5043589;28;20415;-74
2023/12/28 09:35:48;;;;;;;30.27;27.98;;;;;;;;;;5044698;28;20060;-74
2023/12/28 09:38:22;;;;;;;29.73;27.77;;;;;;;;;;5044181;28;20515;-74
2023/12/28 09:40:54;;;;;;;27.77;25.60;;;;;;;;;;5043771;28;20041;-74
2023/12/28 09:43:33;;;;;;;32.20;29.77;;;;;;;;;;5043565;28;20539;-74
2023/12/28 09:46:07;;;;;;;36.90;34.47;;;;;;;;;;5043742;28;20045;-77
2023/12/28 09:48:40;;;;;;;30.05;27.58;;;;;;;;;;5043200;28;20510;-74
2023/12/28 09:51:13;;;;;;;;;;;;;;;;;;5042804;28;20047;-74
2023/12/28 09:53:46;;;;;;;34.05;31.73;;;;;;;;;;5042791;28;19932;-74
2023/12/28 09:56:17;;;;;;;32.42;30.08;;;;;;;;;;5042204;28;20057;-75
2023/12/28 09:58:52;;;;;;;31.30;29.40;;;;;;;;;;5043208;28;20052;-74
2023/12/28 10:01:23;;;;;;;31.70;29.20;;;;;;;;;;5043654;28;20045;-74
2023/12/28 10:03:57;;;;;;;42.33;39.70;;;;;;;;;;5042129;28;20151;-74
2023/12/28 10:06:28;;;;;;;36.05;33.58;;;;;;;;;;5041798;28;20516;-76
2023/12/28 10:09:00;;;;;;;33.40;31.05;;;;;;;;;;5042529;28;20700;-74
2023/12/28 10:11:30;;;;;;;35.05;31.92;;;;;;;;;;5042451;28;20633;-75
2023/12/28 10:14:02;;;;;;;32.40;30.23;;;;;;;;;;5043536;28;20045;-74
2023/12/28 10:16:32;;;;;;;32.22;29.73;;;;;;;;;;5042764;28;20668;-74
2023/12/28 10:19:03;;;;;;;31.05;28.67;;;;;;;;;;5043024;28;20056;-74
2023/12/28 10:21:34;;;;;;;28.15;26.02;;;;;;;;;;5042651;28;20060;-74
2023/12/28 10:24:06;;;;;;;28.17;26.15;;;;;;;;;;5042737;28;20785;-74
2023/12/28 10:26:36;;;;;;;24.92;22.90;;;;;;;;;;5043289;28;20036;-74
2023/12/28 10:29:07;;;;;;;24.08;22.42;;;;;;;;;;5044110;28;20048;-73
2023/12/28 10:31:43;;;;;;;25.42;23.10;;;;;;;;;;5043634;28;20037;-73
2023/12/28 10:34:14;;;;;;;26.05;23.55;;;;;;;;;;5042383;28;20056;-73
2023/12/28 10:36:46;;;;;;;27.83;25.77;;;;;;;;;;5043426;28;20048;-75
2023/12/28 10:39:22;;;;;;;24.00;21.77;;;;;;;;;;5042104;28;20083;-80
2023/12/28 10:41:58;;;;;;;23.45;21.63;;;;;;;;;;5043405;28;20413;-74
2023/12/28 10:44:36;;;;;;;26.92;24.60;;;;;;;;;;5041746;28;20056;-73
2023/12/28 10:47:17;;;;;;;23.38;21.10;;;;;;;;;;5043142;28;20428;-74
2023/12/28 10:49:56;;;;;;;23.95;21.92;;;;;;;;;;5043298;28;20044;-74
2023/12/28 10:52:30;;;;;;;24.80;22.80;;;;;;;;;;5043507;28;20412;-74
2023/12/28 10:55:25;;;;;;;22.73;20.60;;;;;;;;;;5042835;28;20049;-74
2023/12/28 10:58:12;;;;;;;29.75;27.38;;;;;;;;;;5042828;28;20045;-73
2023/12/28 11:00:49;;;;;;;22.33;20.52;;;;;;;;;;5041476;28;20037;-74
2023/12/28 11:03:28;;;;;;;18.75;16.95;;;;;;;;;;5042394;28;20354;-77
2023/12/28 11:06:06;;;;;;;21.25;18.70;;;;;;;;;;5042115;28;20041;-74
2023/12/28 11:08:38;;;;;;;20.27;18.52;;;;;;;;;;5042616;28;20049;-74
2023/12/28 11:11:16;;;;;;;25.58;22.98;;;;;;;;;;5043211;28;20040;-75
2023/12/28 11:13:50;;;;;;;29.95;27.33;;;;;;;;;;5025500;28;20526;-74
2023/12/28 11:16:22;;;;;;;26.80;24.38;;;;;;;;;;5042326;28;20045;-74
2023/12/28 11:18:53;;;;;;;24.48;22.27;;;;;;;;;;5041521;28;20048;-75
2023/12/28 11:21:25;;;;;;;21.50;19.77;;;;;;;;;;5042508;28;20504;-74
2023/12/28 11:23:56;;;;;;;42.30;39.30;;;;;;;;;;5042638;28;20040;-78
2023/12/28 11:26:28;;;;;;;38.47;35.75;;;;;;;;;;5042370;28;20527;-76
2023/12/28 11:29:03;;;;;;;30.70;28.75;;;;;;;;;;5043139;28;20048;-76
2023/12/28 11:31:36;;;;;;;30.40;28.42;;;;;;;;;;5040847;28;20060;-74
2023/12/28 11:34:09;;;;;;;27.08;25.23;;;;;;;;;;5039041;28;20073;-76
2023/12/28 11:37:10;;;;;;;25.38;23.65;;;;;;;;;;5040255;28;20056;-74
2023/12/28 11:39:44;;;;;;;23.75;22.13;;;;;;;;;;5041740;28;20049;-75
2023/12/28 11:42:22;;;;;;;24.15;22.23;;;;;;;;;;5041140;28;20052;-74
2023/12/28 11:44:56;;;;;;;30.90;28.67;;;;;;;;;;5041259;28;20045;-75
2023/12/28 11:47:29;;;;;;;28.45;26.52;;;;;;;;;;5041121;28;20138;-76
2023/12/28 11:50:09;;;;;;;30.65;28.33;;;;;;;;;;5040365;28;20401;-75
2023/12/28 11:52:59;;;;;;;30.00;27.92;;;;;;;;;;5041149;28;20057;-76
2023/12/28 11:55:30;;;;;;;28.48;26.13;;;;;;;;;;5010027;28;20059;-75
2023/12/28 11:58:00;;;;;;;26.98;24.77;;;;;;;;;;5041084;28;20053;-74
2023/12/28 12:00:31;;;;;;;33.35;31.25;;;;;;;;;;5041631;28;20053;-75
2023/12/28 12:03:02;;;;;;;24.27;22.73;;;;;;;;;;5041173;28;20037;-75
2023/12/28 12:05:33;;;;;;;24.58;22.95;;;;;;;;;;5041254;28;20049;-78
2023/12/28 12:08:08;;;;;;;24.63;22.85;;;;;;;;;;5040985;28;20519;-77
2023/12/28 12:10:38;;;;;;;24.73;22.73;;;;;;;;;;5039792;28;20057;-75
2023/12/28 12:13:09;;;;;;;16.27;15.00;;;;;;;;;;5041756;28;20053;-74
2023/12/28 12:15:40;;;;;;;16.23;14.68;;;;;;;;;;5041328;28;20049;-76
2023/12/28 12:18:43;;;;;;;21.73;19.98;;;;;;;;;;5040835;28;20361;-74
2023/12/28 12:21:14;;;;;;;21.13;19.48;;;;;;;;;;5041775;28;20515;-81
2023/12/28 12:23:44;;;;;;;18.35;16.90;;;;;;;;;;5040525;28;20052;-75
2023/12/28 12:26:21;;;;;;;16.00;14.90;;;;;;;;;;5040784;28;20052;-75
2023/12/28 12:28:52;;;;;;;23.38;21.45;;;;;;;;;;5041201;28;20033;-75
2023/12/28 12:31:23;;;;;;;26.85;24.75;;;;;;;;;;5043530;28;20061;-75
2023/12/28 12:33:54;;;;;;;14.95;13.73;;;;;;;;;;5044347;28;20056;-75
2023/12/28 12:36:24;;;;;;;14.57;13.23;;;;;;;;;;5044725;28;20037;-75
2023/12/28 12:38:56;;;;;;;17.70;16.20;;;;;;;;;;5044359;28;20048;-75
2023/12/28 12:41:28;;;;;;;24.77;22.88;;;;;;;;;;5044803;28;20041;-75
2023/12/28 12:43:59;;;;;;;19.95;18.13;;;;;;;;;;5045032;28;20052;-78
2023/12/28 12:46:31;;;;;;;18.27;16.67;;;;;;;;;;5052791;28;20053;-76
2023/12/28 12:49:04;;;;;;;19.73;17.95;;;;;;;;;;5045390;28;20053;-75
2023/12/28 12:51:35;;;;;;;15.70;13.90;;;;;;;;;;5044329;28;20045;-75
2023/12/28 12:54:09;;;;;;;17.63;16.33;;;;;;;;;;5044940;28;20037;-76
2023/12/28 12:56:45;;;;;;;17.80;16.15;;;;;;;;;;5043232;28;20071;-78
2023/12/28 12:59:18;;;;;;;21.60;19.95;;;;;;;;;;5044882;28;20052;-77
2023/12/28 13:01:49;;;;;;;18.40;16.60;;;;;;;;;;5044275;28;20049;-75
2023/12/28 13:04:21;;;;;;;16.38;14.80;;;;;;;;;;5043876;28;20067;-75
2023/12/28 13:06:52;;;;;;;16.77;15.57;;;;;;;;;;5044325;28;20408;-75
2023/12/28 13:09:22;;;;;;;18.58;16.88;;;;;;;;;;5042969;28;20583;-74
2023/12/28 13:11:54;;;;;;;16.98;15.73;;;;;;;;;;5043927;28;20049;-75
2023/12/28 13:14:25;;;;;;;26.33;23.88;;;;;;;;;;5043770;28;20050;-76
2023/12/28 13:16:56;;;;;;;16.67;15.43;;;;;;;;;;5042667;28;20531;-75
2023/12/28 13:19:28;;;;;;;17.70;16.45;;;;;;;;;;5042401;28;20049;-75
2023/12/28 13:22:00;;;;;;;18.30;17.00;;;;;;;;;;5044425;28;20064;-75
2023/12/28 13:24:35;;;;;;;28.33;26.30;;;;;;;;;;5043072;28;20051;-76
2023/12/28 13:27:08;;;;;;;21.73;20.05;;;;;;;;;;5043625;28;20428;-75
2023/12/28 13:29:38;;;;;;;21.13;19.60;;;;;;;;;;5043730;28;20056;-75
2023/12/28 13:32:08;;;;;;;21.38;19.73;;;;;;;;;;5043773;28;20233;-76
2023/12/28 13:34:41;;;;;;;21.75;20.05;;;;;;;;;;5043161;28;20531;-76
2023/12/28 13:37:12;;;;;;;22.77;20.80;;;;;;;;;;5043315;28;20057;-77
2023/12/28 13:39:42;;;;;;;18.55;17.17;;;;;;;;;;5043383;28;20526;-75
2023/12/28 13:42:13;;;;;;;19.23;17.92;;;;;;;;;;5043076;28;20048;-75
2023/12/28 13:44:43;;;;;;;23.88;22.10;;;;;;;;;;5043228;28;20049;-75
2023/12/28 13:47:15;;;;;;;20.40;18.95;;;;;;;;;;5043235;28;20087;-76
2023/12/28 13:49:44;;;;;;;21.65;20.13;;;;;;;;;;5043295;28;20045;-79
2023/12/28 13:52:15;;;;;;;20.15;18.58;;;;;;;;;;5043117;28;20095;-75
2023/12/28 13:54:45;;;;;;;22.92;21.40;;;;;;;;;;5044037;28;20045;-77
2023/12/28 13:57:17;;;;;;;19.48;18.05;;;;;;;;;;5042535;28;20060;-75
2023/12/28 13:59:48;;;;;;;25.85;23.77;;;;;;;;;;5043494;28;20052;-77
2023/12/28 14:02:18;;;;;;;19.02;17.50;;;;;;;;;;5043314;28;20534;-75
2023/12/28 14:04:48;;;;;;;28.77;26.58;;;;;;;;;;5042989;28;20505;-75
2023/12/28 14:07:19;;;;;;;14.93;13.82;;;;;;;;;;5042069;28;20057;-79
2023/12/28 14:09:51;;;;;;;14.60;13.40;;;;;;;;;;5040815;28;20053;-75
2023/12/28 14:12:21;;;;;;;18.35;17.13;;;;;;;;;;5041313;28;20049;-75
2023/12/28 14:14:52;;;;;;;15.13;13.90;;;;;;;;;;5041346;28;20056;-76
2023/12/28 14:17:23;;;;;;;15.30;14.15;;;;;;;;;;5040456;28;20052;-75
2023/12/28 14:19:54;;;;;;;16.60;15.02;;;;;;;;;;5039856;28;20045;-76
2023/12/28 14:22:24;;;;;;;17.35;15.82;;;;;;;;;;5057085;28;20057;-76
2023/12/28 14:24:56;;;;;;;25.83;24.13;;;;;;;;;;5039939;28;20048;-76
2023/12/28 14:27:30;;;;;;;19.10;17.52;;;;;;;;;;5037965;28;20065;-76
2023/12/28 14:30:09;;;;;;;17.42;16.23;;;;;;;;;;5040557;28;20053;-76
2023/12/28 14:32:40;;;;;;;15.05;14.05;;;;;;;;;;5041016;28;20053;-76
2023/12/28 14:35:17;;;;;;;17.58;15.88;;;;;;;;;;5040685;28;20523;-76
2023/12/28 14:37:49;;;;;;;30.13;27.73;;;;;;;;;;5023534;28;20049;-75
2023/12/28 14:40:19;;;;;;;25.65;23.90;;;;;;;;;;5041279;28;20052;-75
2023/12/28 14:42:50;;;;;;;22.20;20.90;;;;;;;;;;5040686;28;20542;-76
2023/12/28 14:45:20;;;;;;;17.83;16.40;;;;;;;;;;5040421;28;20056;-76